Terminal Aerodrome Forecast
Issued by NWS

Home | Current Version | Previous Version | Text Only | Print | Product List | Glossary On
Versions: 1 2 3 4 5 6 7 8 9 10 11 12 13 14 15 16 17
000
FTAK31 PAJK 152333
TAFAGY
TAF
PAGY 152333Z 1600/1624 22007KT P6SM SCT070
     FM160800 21007KT P6SM VCSH BKN070 OVC100
     FM161300 22005KT 5SM -RA BKN015 OVC030
     FM162100 VRB04KT P6SM -RA SCT030 OVC050
     AMD LTD TO CLD VIS AND WIND=

USA.gov is the U.S. government's official web portal to all federal, state and local government web resources and services.